Time;durP1;ratioP1;P1;durP2;ratioP2;P2;SDS_P1;SDS_P2;PMS_P1;PMS_P2;Temp;Humidity;BMP_temperature;BMP_pressure;BME280_temperature;BME280_humidity;BME280_pressure;Samples;Min_cycle;Max_cycle;Signal;HPM_P1;HPM_P2
2023/04/12 00:01:14;;;;;;;5.65;1.58;;;9.90;99.90;;;;;;5049717;28;20040;-59
2023/04/12 00:03:39;;;;;;;10.73;1.95;;;9.90;99.90;;;;;;5044049;28;20455;-58
2023/04/12 00:06:06;;;;;;;7.97;1.83;;;9.90;99.90;;;;;;5044409;28;20148;-58
2023/04/12 00:08:32;;;;;;;5.95;1.88;;;10.00;99.90;;;;;;5041847;28;20040;-58
2023/04/12 00:11:02;;;;;;;7.43;1.88;;;10.00;99.90;;;;;;5050588;28;20539;-58
2023/04/12 00:13:28;;;;;;;8.23;1.77;;;10.10;99.90;;;;;;5052717;28;20028;-58
2023/04/12 00:15:54;;;;;;;6.28;1.65;;;10.10;99.90;;;;;;5044975;28;20032;-59
2023/04/12 00:18:23;;;;;;;7.25;1.73;;;10.00;99.90;;;;;;5041836;28;20635;-58
2023/04/12 00:20:50;;;;;;;5.43;1.35;;;10.00;99.90;;;;;;5041165;28;20071;-58
2023/04/12 00:23:17;;;;;;;9.38;2.20;;;10.10;99.90;;;;;;5039500;28;20057;-58
2023/04/12 00:25:43;;;;;;;7.28;2.13;;;10.10;99.90;;;;;;5043264;28;20060;-58
2023/04/12 00:28:09;;;;;;;9.02;2.00;;;10.20;99.90;;;;;;5048051;28;20041;-59
2023/04/12 00:30:35;;;;;;;4.97;1.45;;;10.00;99.90;;;;;;5044066;28;20409;-59
2023/04/12 00:33:00;;;;;;;7.80;1.85;;;10.00;99.90;;;;;;5042210;28;20139;-59
2023/04/12 00:35:26;;;;;;;6.28;1.70;;;10.00;99.90;;;;;;5044738;28;20304;-59
2023/04/12 00:37:51;;;;;;;10.13;2.00;;;10.00;99.90;;;;;;5042188;28;20102;-58
2023/04/12 00:40:17;;;;;;;8.75;1.98;;;10.00;99.90;;;;;;5043213;28;20118;-58
2023/04/12 00:42:42;;;;;;;6.47;1.90;;;10.00;99.90;;;;;;5044407;28;20115;-58
2023/04/12 00:45:08;;;;;;;7.55;1.90;;;10.00;99.90;;;;;;5042654;28;20060;-59
2023/04/12 00:47:35;;;;;;;4.88;1.67;;;10.00;99.90;;;;;;5041896;28;20037;-59
2023/04/12 00:50:02;;;;;;;7.05;2.03;;;10.00;99.90;;;;;;5045816;28;20150;-58
2023/04/12 00:52:32;;;;;;;6.03;1.95;;;10.00;99.90;;;;;;5035518;28;22066;-58
2023/04/12 00:55:04;;;;;;;6.57;1.92;;;9.90;99.90;;;;;;5038885;28;20519;-58
2023/04/12 00:57:35;;;;;;;9.10;1.83;;;9.80;99.90;;;;;;5039442;28;20036;-59
2023/04/12 01:00:03;;;;;;;7.68;2.42;;;9.90;99.90;;;;;;5042414;28;20126;-58
2023/04/12 01:02:30;;;;;;;11.20;2.28;;;9.90;99.90;;;;;;5046943;28;20040;-58
2023/04/12 01:04:57;;;;;;;11.18;2.22;;;10.00;99.90;;;;;;5050918;28;20036;-58
2023/04/12 01:08:00;;;;;;;8.00;2.33;;;9.80;99.90;;;;;;5039333;28;20044;-58
2023/04/12 01:10:48;;;;;;;8.18;1.90;;;10.00;99.90;;;;;;5036191;28;20205;-58
2023/04/12 01:13:31;;;;;;;8.63;2.33;;;9.80;99.90;;;;;;5031227;28;20124;-58
2023/04/12 01:16:09;;;;;;;;;;;9.80;99.90;;;;;;5050188;28;20096;-58
2023/04/12 01:18:44;;;;;;;8.02;1.92;;;9.60;99.90;;;;;;5045748;28;19986;-58
2023/04/12 01:21:15;;;;;;;10.98;2.63;;;9.60;99.90;;;;;;5040920;28;20033;-58
2023/04/12 01:23:53;;;;;;;10.57;2.65;;;9.60;99.90;;;;;;5031558;28;20677;-58
2023/04/12 01:26:31;;;;;;;5.18;2.13;;;9.60;99.90;;;;;;5040568;28;20040;-58
2023/04/12 01:28:59;;;;;;;5.70;2.40;;;9.50;99.90;;;;;;5044102;28;20126;-59
2023/04/12 01:31:27;;;;;;;5.57;2.08;;;9.60;99.90;;;;;;5044766;28;20439;-58
2023/04/12 01:33:55;;;;;;;9.52;2.53;;;9.40;99.90;;;;;;5044427;28;20068;-58
2023/04/12 01:36:23;;;;;;;6.60;2.17;;;9.30;99.90;;;;;;5044592;28;20218;-59
2023/04/12 01:38:50;;;;;;;7.55;2.42;;;9.40;99.90;;;;;;5045774;28;20463;-58
2023/04/12 01:41:16;;;;;;;7.70;2.30;;;9.40;99.90;;;;;;5045063;28;20035;-59
2023/04/12 01:43:43;;;;;;;8.65;2.58;;;9.40;99.90;;;;;;5048680;28;20040;-58
2023/04/12 01:46:11;;;;;;;8.80;2.20;;;9.50;99.90;;;;;;5042010;28;20044;-58
2023/04/12 01:48:38;;;;;;;6.40;1.80;;;9.50;99.90;;;;;;5048654;28;20365;-58
2023/04/12 01:51:09;;;;;;;6.35;2.20;;;9.40;99.90;;;;;;5043513;28;20095;-59
2023/04/12 01:53:47;;;;;;;7.80;2.22;;;9.40;99.90;;;;;;5045477;28;20451;-58
2023/04/12 01:56:16;;;;;;;9.77;2.05;;;9.40;99.90;;;;;;5050615;28;20044;-58
2023/04/12 01:58:43;;;;;;;10.50;2.60;;;9.30;99.90;;;;;;5045464;28;20075;-58
2023/04/12 02:01:11;;;;;;;7.55;1.90;;;9.40;99.90;;;;;;5042583;28;20340;-58
2023/04/12 02:03:41;;;;;;;6.32;2.00;;;9.30;99.90;;;;;;5046623;28;20593;-58
2023/04/12 02:06:08;;;;;;;6.88;2.10;;;9.30;99.90;;;;;;5048060;28;20056;-58
2023/04/12 02:08:34;;;;;;;7.78;2.20;;;9.30;99.90;;;;;;5044183;28;20366;-58
2023/04/12 02:11:06;;;;;;;8.77;2.25;;;9.20;99.90;;;;;;5053942;28;20037;-59
2023/04/12 02:13:32;;;;;;;7.20;2.10;;;9.40;99.90;;;;;;5041373;28;20124;-58
2023/04/12 02:15:58;;;;;;;8.20;2.50;;;9.20;99.90;;;;;;5043583;28;20153;-58
2023/04/12 02:18:23;;;;;;;6.57;2.08;;;9.10;99.90;;;;;;5046159;28;20268;-58
2023/04/12 02:20:49;;;;;;;9.20;2.50;;;9.10;99.90;;;;;;5047737;28;20231;-58
2023/04/12 02:23:14;;;;;;;9.30;2.17;;;9.10;99.90;;;;;;5039746;28;20050;-58
2023/04/12 02:25:40;;;;;;;7.20;2.15;;;9.10;99.90;;;;;;5049415;28;20044;-58
2023/04/12 02:28:06;;;;;;;7.93;2.00;;;9.00;99.90;;;;;;5049223;28;20036;-59
2023/04/12 02:30:31;;;;;;;8.27;2.00;;;9.10;99.90;;;;;;5050479;28;20025;-58
2023/04/12 02:32:57;;;;;;;9.32;2.00;;;9.10;99.90;;;;;;5043764;28;20045;-58
2023/04/12 02:35:23;;;;;;;6.45;2.13;;;9.20;99.90;;;;;;5043213;28;20041;-58
2023/04/12 02:37:50;;;;;;;7.50;2.15;;;9.10;99.90;;;;;;5044377;28;20044;-58
2023/04/12 02:40:16;;;;;;;5.15;1.70;;;9.10;99.90;;;;;;5041924;28;20041;-59
2023/04/12 02:42:42;;;;;;;6.15;1.83;;;9.10;99.90;;;;;;5045386;28;20029;-58
2023/04/12 02:45:09;;;;;;;8.75;2.33;;;9.10;99.90;;;;;;5045426;28;20175;-58
2023/04/12 02:47:36;;;;;;;5.53;1.80;;;9.10;99.90;;;;;;5045503;28;20249;-58
2023/04/12 02:50:03;;;;;;;3.25;1.67;;;9.00;99.90;;;;;;5041295;28;20508;-57
2023/04/12 02:52:29;;;;;;;4.47;1.77;;;8.90;99.90;;;;;;5043680;28;20037;-59
2023/04/12 02:54:55;;;;;;;8.02;1.92;;;9.00;99.90;;;;;;5046306;28;20128;-58
2023/04/12 02:57:22;;;;;;;5.30;1.83;;;9.00;99.90;;;;;;5058553;28;20057;-58
2023/04/12 02:59:51;;;;;;;5.40;1.80;;;9.00;99.90;;;;;;5045287;28;20036;-58
2023/04/12 03:02:17;;;;;;;5.18;1.80;;;9.00;99.90;;;;;;5044708;28;20033;-58
2023/04/12 03:04:45;;;;;;;5.78;2.08;;;9.00;99.90;;;;;;5048278;28;20448;-59
2023/04/12 03:07:11;;;;;;;6.20;1.90;;;8.80;99.90;;;;;;5036982;28;20041;-59
2023/04/12 03:09:37;;;;;;;6.53;1.80;;;8.80;99.90;;;;;;5037132;28;20040;-59
2023/04/12 03:12:03;;;;;;;6.93;1.50;;;8.80;99.90;;;;;;5050587;28;20392;-59
2023/04/12 03:14:29;;;;;;;5.88;1.55;;;8.80;99.90;;;;;;5045236;28;20612;-59
2023/04/12 03:16:55;;;;;;;9.35;2.03;;;8.90;99.90;;;;;;5044102;28;20142;-59
2023/04/12 03:19:21;;;;;;;4.15;1.80;;;8.90;99.90;;;;;;5046165;28;22286;-59
2023/04/12 03:21:46;;;;;;;3.85;1.50;;;8.80;99.90;;;;;;5044707;28;20048;-59
2023/04/12 03:24:12;;;;;;;7.22;1.92;;;8.80;99.90;;;;;;5044566;28;20041;-58
2023/04/12 03:26:38;;;;;;;4.70;1.60;;;8.80;99.90;;;;;;5043817;28;20029;-59
2023/04/12 03:29:04;;;;;;;3.55;1.63;;;8.90;99.90;;;;;;5044338;28;20408;-59
2023/04/12 03:31:30;;;;;;;5.82;1.70;;;8.90;99.90;;;;;;5039978;28;20056;-59
2023/04/12 03:33:56;;;;;;;4.78;1.60;;;9.00;99.90;;;;;;5045426;28;20048;-59
2023/04/12 03:36:21;;;;;;;5.22;1.63;;;9.00;99.90;;;;;;5059899;28;20453;-59
2023/04/12 03:38:47;;;;;;;5.72;1.70;;;9.00;99.90;;;;;;5047312;28;20041;-59
2023/04/12 03:41:14;;;;;;;5.15;1.70;;;9.10;99.90;;;;;;5041725;28;20040;-59
2023/04/12 03:43:41;;;;;;;4.68;1.50;;;9.00;99.90;;;;;;5045414;28;20059;-59
2023/04/12 03:46:07;;;;;;;5.63;1.50;;;9.00;99.90;;;;;;5046435;28;20392;-59
2023/04/12 03:48:33;;;;;;;6.38;1.58;;;9.00;99.90;;;;;;5045478;28;20115;-59
2023/04/12 03:50:59;;;;;;;3.78;1.50;;;9.10;99.90;;;;;;5048574;28;20119;-59
2023/04/12 03:53:30;;;;;;;4.90;1.55;;;9.10;99.90;;;;;;5043364;28;20409;-59
2023/04/12 03:55:56;;;;;;;3.97;1.80;;;9.30;99.90;;;;;;5041995;28;20041;-59
2023/04/12 03:58:21;;;;;;;3.50;1.52;;;9.20;99.90;;;;;;5046343;28;20511;-58
2023/04/12 04:00:47;;;;;;;3.75;1.63;;;9.20;99.90;;;;;;5040641;28;20037;-59
2023/04/12 04:03:13;;;;;;;6.50;2.10;;;9.20;99.90;;;;;;5035027;28;20475;-59
2023/04/12 04:05:39;;;;;;;3.40;1.65;;;9.20;99.90;;;;;;5047968;28;20116;-59
2023/04/12 04:08:06;;;;;;;6.38;2.33;;;9.20;99.90;;;;;;5045882;28;20193;-59
2023/04/12 04:10:32;;;;;;;7.40;2.00;;;9.10;99.90;;;;;;5037417;28;20506;-58
2023/04/12 04:12:57;;;;;;;6.93;2.13;;;9.10;99.90;;;;;;5049541;28;20047;-59
2023/04/12 04:15:26;;;;;;;8.23;2.47;;;9.10;99.90;;;;;;5047567;28;20037;-59
2023/04/12 04:17:52;;;;;;;7.20;2.20;;;9.10;99.90;;;;;;5045204;28;20453;-59
2023/04/12 04:20:18;;;;;;;7.53;2.45;;;9.10;99.90;;;;;;5044442;28;20160;-59
2023/04/12 04:22:47;;;;;;;6.10;2.20;;;9.10;99.90;;;;;;5041778;28;20055;-58
2023/04/12 04:25:13;;;;;;;8.15;2.50;;;9.00;99.90;;;;;;5037690;28;20263;-58
2023/04/12 04:27:40;;;;;;;8.20;2.42;;;9.00;99.90;;;;;;5042796;28;20041;-58
2023/04/12 04:30:06;;;;;;;6.15;2.40;;;9.00;99.90;;;;;;5039263;28;20352;-58
2023/04/12 04:32:32;;;;;;;7.05;2.53;;;8.90;99.90;;;;;;5041512;28;20412;-58
2023/04/12 04:34:58;;;;;;;8.10;2.40;;;9.00;99.90;;;;;;5044874;28;20035;-58
2023/04/12 04:37:29;;;;;;;7.03;2.40;;;9.00;99.90;;;;;;5044343;28;20428;-59
2023/04/12 04:39:55;;;;;;;5.15;2.10;;;8.90;99.90;;;;;;5047532;28;20112;-58
2023/04/12 04:42:21;;;;;;;5.70;2.60;;;8.90;99.90;;;;;;5042479;28;20496;-59
2023/04/12 04:44:49;;;;;;;7.47;2.70;;;8.80;99.90;;;;;;5049611;28;20112;-59
2023/04/12 04:47:15;;;;;;;8.57;2.25;;;8.90;99.90;;;;;;5040991;28;20461;-58
2023/04/12 04:49:43;;;;;;;9.38;2.40;;;8.90;99.90;;;;;;5046419;28;20508;-58
2023/04/12 04:52:08;;;;;;;7.85;2.08;;;8.90;99.90;;;;;;5041421;28;20067;-58
2023/04/12 04:54:34;;;;;;;7.32;2.28;;;8.80;99.90;;;;;;5048503;28;20029;-58
2023/04/12 04:57:00;;;;;;;5.50;2.10;;;8.80;99.90;;;;;;5045352;28;20032;-58
2023/04/12 04:59:26;;;;;;;5.90;2.60;;;8.80;99.90;;;;;;5041983;28;20533;-59
2023/04/12 05:01:52;;;;;;;6.32;2.65;;;8.90;99.90;;;;;;5041024;28;20103;-59
2023/04/12 05:04:17;;;;;;;5.18;2.60;;;8.90;99.90;;;;;;5045332;28;20071;-58
2023/04/12 05:06:44;;;;;;;6.75;2.78;;;8.90;99.90;;;;;;5047184;28;20094;-58
2023/04/12 05:09:10;;;;;;;6.18;2.35;;;8.80;99.90;;;;;;5039532;28;20551;-58
2023/04/12 05:11:36;;;;;;;8.43;2.60;;;8.80;99.90;;;;;;5050404;28;20051;-58
2023/04/12 05:14:01;;;;;;;6.50;2.70;;;8.90;99.90;;;;;;5041477;28;20124;-58
2023/04/12 05:16:27;;;;;;;8.18;3.03;;;8.80;99.90;;;;;;5034986;28;20124;-58
2023/04/12 05:18:53;;;;;;;6.07;3.20;;;8.80;99.90;;;;;;5040886;28;20108;-59
2023/04/12 05:21:18;;;;;;;7.22;2.85;;;8.80;99.90;;;;;;5040206;28;20040;-58
2023/04/12 05:23:45;;;;;;;6.80;3.10;;;8.70;99.90;;;;;;5041753;28;20051;-58
2023/04/12 05:26:11;;;;;;;8.45;3.63;;;8.60;99.90;;;;;;5047398;28;20029;-58
2023/04/12 05:28:37;;;;;;;8.88;3.65;;;8.70;99.90;;;;;;5040311;28;20048;-59
2023/04/12 05:31:03;;;;;;;9.73;3.50;;;8.80;99.90;;;;;;5040224;28;20037;-58
2023/04/12 05:33:28;;;;;;;7.35;3.55;;;8.90;99.90;;;;;;5041954;28;20053;-58
2023/04/12 05:35:54;;;;;;;6.53;3.40;;;8.90;99.90;;;;;;5038391;28;20458;-60
2023/04/12 05:38:19;;;;;;;6.32;3.22;;;9.00;99.90;;;;;;5043598;28;20349;-58
2023/04/12 05:40:45;;;;;;;10.50;3.22;;;8.90;99.90;;;;;;5043597;28;20120;-58
2023/04/12 05:43:14;;;;;;;9.63;3.83;;;8.80;99.90;;;;;;5037765;28;20068;-58
2023/04/12 05:45:40;;;;;;;7.18;3.33;;;8.80;99.90;;;;;;5053960;28;20040;-58
2023/04/12 05:48:06;;;;;;;8.35;3.50;;;8.90;99.90;;;;;;5045581;28;20169;-58
2023/04/12 05:50:32;;;;;;;7.00;3.42;;;9.00;99.90;;;;;;5044137;28;20063;-58
2023/04/12 05:52:59;;;;;;;7.55;3.58;;;8.80;99.90;;;;;;5043086;28;20144;-58
2023/04/12 05:55:24;;;;;;;6.47;3.90;;;8.80;99.90;;;;;;5042718;28;20468;-58
2023/04/12 05:57:50;;;;;;;7.03;3.65;;;8.80;99.90;;;;;;5044684;28;20410;-58
2023/04/12 06:00:17;;;;;;;9.82;4.03;;;8.80;99.90;;;;;;5046179;28;20025;-58
2023/04/12 06:02:44;;;;;;;8.27;3.78;;;8.80;99.90;;;;;;5042507;28;20040;-59
2023/04/12 06:05:10;;;;;;;9.82;3.90;;;8.70;99.90;;;;;;5050106;28;20051;-59
2023/04/12 06:07:38;;;;;;;6.40;3.65;;;8.70;99.90;;;;;;5041234;28;20505;-59
2023/04/12 06:10:04;;;;;;;8.57;3.92;;;8.80;99.90;;;;;;5045258;28;20041;-59
2023/04/12 06:12:29;;;;;;;6.07;3.72;;;8.80;99.90;;;;;;5048403;28;20132;-59
2023/04/12 06:14:55;;;;;;;6.45;3.80;;;8.90;99.90;;;;;;5049733;28;20120;-59
2023/04/12 06:17:21;;;;;;;8.02;3.97;;;8.90;99.90;;;;;;5046987;28;20107;-59
2023/04/12 06:19:47;;;;;;;8.45;4.22;;;9.00;99.90;;;;;;5051057;28;20434;-59
2023/04/12 06:22:12;;;;;;;7.75;4.20;;;9.00;99.90;;;;;;5041687;28;20068;-59
2023/04/12 06:24:38;;;;;;;7.93;3.78;;;9.00;99.90;;;;;;5048115;28;20040;-59
2023/04/12 06:27:03;;;;;;;7.30;4.18;;;9.00;99.90;;;;;;5048914;28;20337;-59
2023/04/12 06:29:29;;;;;;;7.63;4.50;;;9.10;99.90;;;;;;5046227;28;20302;-58
2023/04/12 06:31:54;;;;;;;7.90;4.57;;;9.20;99.90;;;;;;5042890;28;20687;-59
2023/04/12 06:34:20;;;;;;;7.95;4.22;;;9.20;99.90;;;;;;5045179;28;20389;-59
2023/04/12 06:36:46;;;;;;;6.55;3.97;;;9.10;99.90;;;;;;5043342;28;20033;-58
2023/04/12 06:39:12;;;;;;;7.85;4.18;;;9.10;99.90;;;;;;5045628;28;20049;-59
2023/04/12 06:41:38;;;;;;;7.63;4.35;;;9.10;99.90;;;;;;5046784;28;20036;-59
2023/04/12 06:44:04;;;;;;;11.13;4.50;;;9.10;99.90;;;;;;5054620;28;20048;-59
2023/04/12 06:46:30;;;;;;;7.90;4.30;;;9.20;99.90;;;;;;5050701;28;20067;-59
2023/04/12 06:48:56;;;;;;;6.55;4.47;;;9.10;99.90;;;;;;5043957;28;20035;-59
2023/04/12 06:51:21;;;;;;;8.70;4.63;;;9.30;99.90;;;;;;5044722;28;20542;-59
2023/04/12 06:53:47;;;;;;;11.32;4.60;;;9.30;99.90;;;;;;5046055;28;20040;-59
2023/04/12 06:56:12;;;;;;;8.90;5.05;;;9.20;99.90;;;;;;5045290;28;20075;-59
2023/04/12 06:58:38;;;;;;;8.60;5.05;;;9.30;99.90;;;;;;5039035;28;20033;-59
2023/04/12 07:01:08;;;;;;;10.57;4.55;;;9.30;99.90;;;;;;5042369;28;20030;-59
2023/04/12 07:03:34;;;;;;;9.00;4.88;;;9.30;99.90;;;;;;5042895;28;20056;-58
2023/04/12 07:06:01;;;;;;;7.80;4.78;;;9.30;99.90;;;;;;5047944;28;20072;-58
2023/04/12 07:08:28;;;;;;;6.13;4.40;;;9.20;99.90;;;;;;5046213;28;20039;-59
2023/04/12 07:10:56;;;;;;;8.48;4.68;;;9.40;99.90;;;;;;5048008;28;20167;-58
2023/04/12 07:13:22;;;;;;;8.50;4.78;;;9.40;99.90;;;;;;5055064;28;20508;-59
2023/04/12 07:15:49;;;;;;;8.50;5.05;;;9.40;99.90;;;;;;5041633;28;20090;-58
2023/04/12 07:18:15;;;;;;;8.77;4.90;;;9.40;99.90;;;;;;5046638;28;20033;-59
2023/04/12 07:20:40;;;;;;;10.90;5.35;;;9.50;99.90;;;;;;5038730;28;20052;-59
2023/04/12 07:23:06;;;;;;;8.15;5.20;;;9.60;99.90;;;;;;5042271;28;20041;-59
2023/04/12 07:25:31;;;;;;;8.25;5.03;;;9.50;99.90;;;;;;5034795;28;20052;-59
2023/04/12 07:27:57;;;;;;;8.25;4.82;;;9.60;99.90;;;;;;5040690;28;20213;-59
2023/04/12 07:30:22;;;;;;;8.23;4.70;;;9.70;99.90;;;;;;5040459;28;20558;-59
2023/04/12 07:32:48;;;;;;;8.82;4.75;;;9.80;99.90;;;;;;5040987;28;20449;-59
2023/04/12 07:35:14;;;;;;;10.20;5.10;;;9.70;99.90;;;;;;5048527;28;20036;-60
2023/04/12 07:37:39;;;;;;;5.43;4.25;;;9.60;99.90;;;;;;5044839;28;20052;-58
2023/04/12 07:40:06;;;;;;;7.68;4.60;;;9.60;99.90;;;;;;5038054;28;20068;-59
2023/04/12 07:42:31;;;;;;;5.57;4.70;;;9.50;99.90;;;;;;5038761;28;20127;-59
2023/04/12 07:44:57;;;;;;;8.48;4.43;;;9.40;99.90;;;;;;5039574;28;20055;-59
2023/04/12 07:47:22;;;;;;;6.18;3.95;;;9.40;99.90;;;;;;5043699;28;20045;-58
2023/04/12 07:49:48;;;;;;;6.30;4.18;;;9.30;99.90;;;;;;5049650;28;20033;-58
2023/04/12 07:52:14;;;;;;;6.70;3.92;;;9.40;99.90;;;;;;5046843;28;20073;-58
2023/04/12 07:54:40;;;;;;;5.13;3.92;;;9.50;99.90;;;;;;5044787;28;20139;-59
2023/04/12 07:57:07;;;;;;;10.23;4.47;;;9.40;99.90;;;;;;5047970;28;20044;-59
2023/04/12 07:59:33;;;;;;;7.03;4.30;;;9.40;99.90;;;;;;5039932;28;20025;-58
2023/04/12 08:01:59;;;;;;;7.38;4.53;;;9.60;99.90;;;;;;5041571;28;20059;-58
2023/04/12 08:04:26;;;;;;;8.18;4.22;;;9.60;99.90;;;;;;5042502;28;20044;-58
2023/04/12 08:06:52;;;;;;;8.15;4.10;;;9.70;99.90;;;;;;5041417;28;20361;-58
2023/04/12 08:09:18;;;;;;;7.53;4.20;;;9.70;99.90;;;;;;5041743;28;20052;-59
2023/04/12 08:11:43;;;;;;;6.22;4.20;;;9.80;99.90;;;;;;5047366;28;20080;-59
2023/04/12 08:14:09;;;;;;;9.25;4.50;;;9.80;99.90;;;;;;5044119;28;20043;-58
2023/04/12 08:16:35;;;;;;;5.82;4.03;;;9.80;99.90;;;;;;5042537;28;20116;-59
2023/04/12 08:19:00;;;;;;;5.50;3.85;;;9.90;99.90;;;;;;5053384;28;20021;-61
2023/04/12 08:21:26;;;;;;;5.60;3.85;;;10.00;99.90;;;;;;5042591;28;20093;-60
2023/04/12 08:23:52;;;;;;;5.35;3.65;;;10.00;99.90;;;;;;5042260;28;20113;-61
2023/04/12 08:26:18;;;;;;;5.53;3.50;;;10.20;99.90;;;;;;5047594;28;20052;-61
2023/04/12 08:28:43;;;;;;;7.20;3.78;;;10.00;99.90;;;;;;5039342;28;20060;-61
2023/04/12 08:31:09;;;;;;;7.03;3.72;;;10.00;99.90;;;;;;5041321;28;20487;-61
2023/04/12 08:33:35;;;;;;;5.22;3.78;;;10.10;99.90;;;;;;5037051;28;20120;-61
2023/04/12 08:36:00;;;;;;;5.00;4.15;;;10.20;99.90;;;;;;5043131;28;20048;-60
2023/04/12 08:38:26;;;;;;;7.22;4.10;;;10.20;99.90;;;;;;5038289;28;20466;-61
2023/04/12 08:40:52;;;;;;;6.55;3.78;;;10.20;99.90;;;;;;5044114;28;20523;-61
2023/04/12 08:43:18;;;;;;;4.68;3.60;;;10.00;99.90;;;;;;5040439;28;20493;-61
2023/04/12 08:45:44;;;;;;;7.03;4.15;;;10.10;99.90;;;;;;5044060;28;20040;-61
2023/04/12 08:48:10;;;;;;;6.05;3.78;;;10.30;99.90;;;;;;5041098;28;20500;-61
2023/04/12 08:50:36;;;;;;;5.45;4.00;;;10.20;99.90;;;;;;5049240;28;20032;-61
2023/04/12 08:53:01;;;;;;;5.80;3.80;;;10.20;99.90;;;;;;5039207;28;20062;-61
2023/04/12 08:55:27;;;;;;;9.90;4.05;;;10.20;99.90;;;;;;5042112;28;20423;-61
2023/04/12 08:57:57;;;;;;;4.80;3.70;;;10.00;99.90;;;;;;5051262;28;20040;-61
2023/04/12 09:00:23;;;;;;;5.60;3.85;;;9.90;99.90;;;;;;5037573;28;20059;-61
2023/04/12 09:02:49;;;;;;;7.47;4.15;;;10.10;99.90;;;;;;5044051;28;20497;-61
2023/04/12 09:05:16;;;;;;;6.57;4.32;;;10.00;99.90;;;;;;5040920;28;20043;-61
2023/04/12 09:07:42;;;;;;;4.45;4.05;;;10.10;99.90;;;;;;5043735;28;20040;-60
2023/04/12 09:10:08;;;;;;;7.18;4.13;;;10.10;99.90;;;;;;5043844;28;20123;-61
2023/04/12 09:12:34;;;;;;;5.28;4.18;;;10.20;99.90;;;;;;5042140;28;20040;-61
2023/04/12 09:15:13;;;;;;;10.52;4.75;;;10.10;99.90;;;;;;5041690;28;20044;-61
2023/04/12 09:17:40;;;;;;;7.38;4.40;;;10.10;99.90;;;;;;5047355;28;20488;-61
2023/04/12 09:20:26;;;;;;;5.65;4.35;;;10.10;99.90;;;;;;5050922;28;20040;-60
2023/04/12 09:22:54;;;;;;;6.30;5.20;;;10.30;99.90;;;;;;5040443;28;20590;-61
2023/04/12 09:25:35;;;;;;;6.50;5.65;;;10.50;99.90;;;;;;5047502;28;20140;-60
2023/04/12 09:28:01;;;;;;;9.73;6.47;;;10.90;99.90;;;;;;5048194;28;20037;-61
2023/04/12 09:30:26;;;;;;;6.68;6.03;;;11.20;99.90;;;;;;5040410;28;20376;-61
2023/04/12 09:32:54;;;;;;;9.07;6.03;;;11.20;99.90;;;;;;5044805;28;20037;-60
2023/04/12 09:35:35;;;;;;;7.50;5.63;;;11.10;99.90;;;;;;5036660;28;20033;-61
2023/04/12 09:38:10;;;;;;;5.72;4.85;;;11.00;99.90;;;;;;5041480;28;20048;-61
2023/04/12 09:40:36;;;;;;;4.97;4.20;;;10.90;99.90;;;;;;5040008;28;20523;-61
2023/04/12 09:43:02;;;;;;;5.43;4.80;;;11.00;99.90;;;;;;5042276;28;20040;-61
2023/04/12 09:45:30;;;;;;;5.28;3.92;;;11.20;99.90;;;;;;5038853;28;20182;-61
2023/04/12 09:47:56;;;;;;;4.50;4.10;;;11.30;99.90;;;;;;5044129;28;20047;-61
2023/04/12 09:50:25;;;;;;;4.30;3.80;;;11.40;99.90;;;;;;5045266;28;20532;-61
2023/04/12 09:52:52;;;;;;;5.55;3.35;;;11.80;99.90;;;;;;5048972;28;20036;-61
2023/04/12 09:55:20;;;;;;;4.05;2.75;;;12.00;99.90;;;;;;5043393;28;20033;-61
2023/04/12 09:57:47;;;;;;;7.18;3.85;;;12.10;99.90;;;;;;5055514;28;20492;-61
2023/04/12 10:00:16;;;;;;;3.63;2.95;;;12.20;99.90;;;;;;5047350;28;20025;-61
2023/04/12 10:02:44;;;;;;;4.57;3.20;;;12.40;99.90;;;;;;5044473;28;20305;-61
2023/04/12 10:05:14;;;;;;;4.07;2.70;;;12.60;99.90;;;;;;5046826;28;20418;-61
2023/04/12 10:07:43;;;;;;;3.65;2.45;;;12.70;99.90;;;;;;5038415;28;20124;-61
2023/04/12 10:10:14;;;;;;;2.60;2.40;;;12.90;99.90;;;;;;5051800;28;20124;-61
2023/04/12 10:12:41;;;;;;;2.65;2.30;;;13.00;99.90;;;;;;5048315;28;20039;-61
2023/04/12 10:15:12;;;;;;;2.58;2.03;;;13.00;99.90;;;;;;5036691;28;20033;-61
2023/04/12 10:17:53;;;;;;;5.82;1.75;;;12.60;99.90;;;;;;5045604;28;20037;-61
2023/04/12 10:20:21;;;;;;;7.68;1.80;;;12.10;99.90;;;;;;5039733;28;20097;-61
2023/04/12 10:22:51;;;;;;;5.07;1.70;;;11.40;99.90;;;;;;5044440;28;20053;-61
2023/04/12 10:25:19;;;;;;;7.68;2.00;;;11.00;99.90;;;;;;5041289;28;20044;-61
2023/04/12 10:27:45;;;;;;;7.63;1.95;;;11.20;99.90;;;;;;5049195;28;20060;-61
2023/04/12 10:30:26;;;;;;;6.50;2.25;;;11.00;99.90;;;;;;5039993;28;20033;-61
2023/04/12 10:33:03;;;;;;;4.50;1.85;;;11.20;99.90;;;;;;5044243;28;20047;-61
2023/04/12 10:35:43;;;;;;;12.23;2.72;;;11.20;99.90;;;;;;5050801;28;20136;-61
2023/04/12 10:38:09;;;;;;;6.55;1.60;;;11.10;99.90;;;;;;5045007;28;20040;-61
2023/04/12 10:40:35;;;;;;;8.38;1.90;;;10.90;99.90;;;;;;5047949;28;20428;-61
2023/04/12 10:43:22;;;;;;;9.40;2.15;;;10.80;99.90;;;;;;5034465;28;20072;-60
2023/04/12 10:45:49;;;;;;;8.57;2.15;;;11.10;99.90;;;;;;5043676;28;20029;-61
2023/04/12 10:48:37;;;;;;;15.55;2.67;;;11.20;99.90;;;;;;5039820;28;20089;-61
2023/04/12 10:51:23;;;;;;;13.82;2.15;;;11.30;99.90;;;;;;5044193;28;20037;-61
2023/04/12 10:53:55;;;;;;;12.93;2.30;;;11.20;99.90;;;;;;5037246;28;20056;-61
2023/04/12 10:56:30;;;;;;;6.80;1.98;;;10.90;99.90;;;;;;5041548;28;20044;-61
2023/04/12 10:59:00;;;;;;;10.48;2.28;;;11.20;99.90;;;;;;5039955;28;20053;-61
2023/04/12 11:01:27;;;;;;;7.53;1.85;;;11.10;99.90;;;;;;5040224;28;20477;-60
2023/04/12 11:04:11;;;;;;;12.98;2.30;;;11.20;99.90;;;;;;5039980;28;20033;-61
2023/04/12 11:06:55;;;;;;;16.67;2.47;;;11.50;99.90;;;;;;5039084;28;20476;-61
2023/04/12 11:09:32;;;;;;;11.77;2.30;;;11.80;99.90;;;;;;5036705;28;20036;-61
2023/04/12 11:12:12;;;;;;;10.13;2.05;;;12.10;99.90;;;;;;5040953;28;20121;-61
2023/04/12 11:14:46;;;;;;;11.63;2.20;;;12.40;99.90;;;;;;5037255;28;20075;-61
2023/04/12 11:17:12;;;;;;;9.40;2.33;;;12.30;99.90;;;;;;5039046;28;20033;-60
2023/04/12 11:19:38;;;;;;;7.60;1.83;;;12.40;99.90;;;;;;5043674;28;20036;-60
2023/04/12 11:22:11;;;;;;;8.75;1.88;;;12.80;99.90;;;;;;5044036;28;20150;-61
2023/04/12 11:24:38;;;;;;;11.60;2.35;;;12.70;99.90;;;;;;5043069;28;20102;-61
2023/04/12 11:27:04;;;;;;;13.13;2.13;;;12.80;99.90;;;;;;5038104;28;20048;-61
2023/04/12 11:29:31;;;;;;;7.35;1.75;;;12.90;99.90;;;;;;5039156;28;20036;-61
2023/04/12 11:31:57;;;;;;;6.18;1.70;;;12.80;99.90;;;;;;5039166;28;20449;-61
2023/04/12 11:34:24;;;;;;;10.02;2.08;;;13.00;99.90;;;;;;5043392;28;20044;-59
2023/04/12 11:36:53;;;;;;;10.88;2.85;;;13.00;99.90;;;;;;5040434;28;20393;-61
2023/04/12 11:39:20;;;;;;;7.50;1.85;;;13.20;99.90;;;;;;5041619;28;20025;-61
2023/04/12 11:41:49;;;;;;;11.25;2.67;;;13.20;99.90;;;;;;5048563;28;20059;-61
2023/04/12 11:44:20;;;;;;;9.60;2.28;;;13.10;99.90;;;;;;5047050;28;20045;-61
2023/04/12 11:46:46;;;;;;;5.35;1.90;;;13.00;99.90;;;;;;5046354;28;20036;-60
2023/04/12 11:49:19;;;;;;;7.18;2.10;;;12.80;99.90;;;;;;5042229;28;20500;-60
2023/04/12 11:51:45;;;;;;;6.63;2.00;;;12.80;99.90;;;;;;5051849;28;20156;-60
2023/04/12 11:54:12;;;;;;;6.80;2.03;;;12.70;99.90;;;;;;5042834;28;20457;-59
2023/04/12 11:56:38;;;;;;;4.82;1.90;;;13.00;99.90;;;;;;5044389;28;20646;-60
2023/04/12 11:59:05;;;;;;;9.43;1.67;;;13.20;99.90;;;;;;5037813;28;20068;-60
2023/04/12 12:01:33;;;;;;;8.35;1.88;;;13.30;99.90;;;;;;5044000;28;20052;-60
2023/04/12 12:03:59;;;;;;;7.82;2.28;;;13.40;99.90;;;;;;5048327;28;20021;-60
2023/04/12 12:06:26;;;;;;;7.45;2.42;;;13.70;99.90;;;;;;5044645;28;20098;-61
2023/04/12 12:08:52;;;;;;;8.55;2.20;;;13.70;99.90;;;;;;5037656;28;20495;-60
2023/04/12 12:11:22;;;;;;;10.10;2.45;;;13.60;99.90;;;;;;5039872;28;20103;-60
2023/04/12 12:13:49;;;;;;;9.30;2.63;;;13.30;99.90;;;;;;5046525;28;20087;-60
2023/04/12 12:16:17;;;;;;;11.43;3.10;;;13.40;99.90;;;;;;5045443;28;20037;-60
2023/04/12 12:18:44;;;;;;;10.10;2.42;;;13.30;99.90;;;;;;5063492;28;20078;-60
2023/04/12 12:21:11;;;;;;;15.27;2.47;;;13.20;99.90;;;;;;5052604;28;20480;-60
2023/04/12 12:23:37;;;;;;;10.38;2.60;;;13.20;99.90;;;;;;5037683;28;20029;-61
2023/04/12 12:26:05;;;;;;;12.90;2.63;;;13.30;99.90;;;;;;5047188;28;20037;-59
2023/04/12 12:28:38;;;;;;;10.27;2.97;;;13.40;99.90;;;;;;5049944;28;20072;-60
2023/04/12 12:31:09;;;;;;;12.43;3.30;;;13.40;99.90;;;;;;5043223;28;20061;-60
2023/04/12 12:33:41;;;;;;;10.27;2.70;;;13.40;99.90;;;;;;5042801;28;20858;-60
2023/04/12 12:36:07;;;;;;;12.65;3.38;;;13.50;99.90;;;;;;5043275;28;20071;-60
2023/04/12 12:38:42;;;;;;;12.30;3.10;;;13.50;99.90;;;;;;5050291;28;20411;-60
2023/04/12 12:41:18;;;;;;;10.02;3.33;;;13.60;99.90;;;;;;5043655;28;20043;-59
2023/04/12 12:43:49;;;;;;;12.15;3.90;;;13.50;99.90;;;;;;5039905;28;20243;-60
2023/04/12 12:46:19;;;;;;;12.48;3.53;;;13.50;99.90;;;;;;5048211;28;20343;-60
2023/04/12 12:48:45;;;;;;;15.40;4.18;;;13.60;99.90;;;;;;5048886;28;20029;-60
2023/04/12 12:51:12;;;;;;;12.20;3.72;;;13.70;99.90;;;;;;5043228;28;20124;-60
2023/04/12 12:53:40;;;;;;;13.07;4.10;;;13.70;99.90;;;;;;5041186;28;20143;-60